Time;durP1;ratioP1;P1;durP2;ratioP2;P2;SDS_P1;SDS_P2;PMS_P1;PMS_P2;Temp;Humidity;BMP_temperature;BMP_pressure;BME280_temperature;BME280_humidity;BME280_pressure;Samples;Min_cycle;Max_cycle;Signal;HPM_P1;HPM_P2
2023/04/28 00:00:18;;;;;;;3.13;2.17;;;;;;;7.04;52.92;101013.50;4955144;29;20485;-81
2023/04/28 00:02:47;;;;;;;3.08;2.03;;;;;;;7.05;53.02;101009.16;4955361;28;20502;-81
2023/04/28 00:05:14;;;;;;;3.70;1.77;;;;;;;7.04;53.14;101003.09;4939898;29;20047;-81
2023/04/28 00:07:40;;;;;;;6.05;2.05;;;;;;;7.03;53.27;101006.53;4971037;28;20082;-81
2023/04/28 00:10:08;;;;;;;4.20;2.03;;;;;;;7.02;53.32;101004.78;4955834;29;20453;-81
2023/04/28 00:12:34;;;;;;;4.53;1.77;;;;;;;7.04;53.24;100997.88;4956371;28;20436;-81
2023/04/28 00:15:02;;;;;;;5.32;2.80;;;;;;;7.04;53.29;100997.88;4971307;28;20047;-81
2023/04/28 00:17:30;;;;;;;6.05;2.75;;;;;;;7.07;53.23;101004.84;4955643;29;20043;-81
2023/04/28 00:19:56;;;;;;;3.38;2.08;;;;;;;7.06;53.24;101008.31;4955356;29;20118;-81
2023/04/28 00:22:23;;;;;;;6.38;3.35;;;;;;;7.03;53.50;100996.13;4971622;28;20046;-81
2023/04/28 00:24:49;;;;;;;4.85;2.30;;;;;;;7.03;53.04;100990.06;4954494;28;20360;-81
2023/04/28 00:27:16;;;;;;;2.45;1.90;;;;;;;7.02;53.11;100976.16;4971670;28;20042;-81
2023/04/28 00:29:42;;;;;;;3.72;1.95;;;;;;;7.02;53.12;100980.50;4971662;28;20119;-82
2023/04/28 00:32:09;;;;;;;8.18;2.05;;;;;;;7.03;53.17;100979.66;4946565;29;20057;-81
2023/04/28 00:34:36;;;;;;;3.78;1.95;;;;;;;7.02;53.46;100972.69;4954967;29;20047;-81
2023/04/28 00:37:03;;;;;;;2.05;1.85;;;;;;;7.00;53.45;100972.69;4971176;28;20055;-81
2023/04/28 00:39:30;;;;;;;2.38;1.92;;;;;;;7.03;53.52;100971.84;4956360;28;20043;-81
2023/04/28 00:41:57;;;;;;;3.20;2.30;;;;;;;7.04;53.85;100969.25;4941004;29;20043;-81
2023/04/28 00:44:23;;;;;;;3.20;2.30;;;;;;;7.05;53.33;100963.19;4954793;29;20458;-81
2023/04/28 00:46:50;;;;;;;4.47;2.13;;;;;;;7.05;53.57;100965.78;4955404;29;20090;-81
2023/04/28 00:49:16;;;;;;;4.80;2.80;;;;;;;7.04;53.56;100961.44;4955419;29;20397;-81
2023/04/28 00:51:43;;;;;;;3.45;2.22;;;;;;;7.04;53.55;100957.94;4954384;29;20070;-80
2023/04/28 00:54:13;;;;;;;6.57;2.13;;;;;;;7.04;54.00;100952.72;4970759;28;20045;-81
2023/04/28 00:56:40;;;;;;;5.47;2.00;;;;;;;7.04;53.80;100961.44;4954672;29;20066;-80
2023/04/28 00:59:07;;;;;;;4.07;2.42;;;;;;;7.03;54.11;100962.28;4938171;29;20050;-80
2023/04/28 01:01:35;;;;;;;6.13;3.17;;;;;;;6.99;53.95;100955.31;4956917;29;20067;-81
2023/04/28 01:04:01;;;;;;;2.55;2.30;;;;;;;7.00;54.50;100945.75;4944854;29;20386;-81
2023/04/28 01:06:29;;;;;;;2.15;1.85;;;;;;;7.00;54.08;100945.75;4954956;29;20043;-80
2023/04/28 01:08:56;;;;;;;3.85;2.35;;;;;;;7.02;54.79;100949.25;4954338;29;20074;-81
2023/04/28 01:11:22;;;;;;;7.75;2.40;;;;;;;7.00;54.50;100938.84;4954527;29;20057;-80
2023/04/28 01:13:49;;;;;;;2.88;2.20;;;;;;;6.99;54.62;100936.19;4954256;29;20113;-81
2023/04/28 01:16:16;;;;;;;4.82;2.90;;;;;;;6.97;54.64;100925.78;4953751;29;20114;-81
2023/04/28 01:18:47;;;;;;;2.78;2.03;;;;;;;6.98;54.93;100931.88;4954425;29;20054;-81
2023/04/28 01:21:14;;;;;;;5.53;2.28;;;;;;;7.00;54.52;100933.63;4953882;29;20059;-80
2023/04/28 01:23:40;;;;;;;4.00;2.25;;;;;;;7.01;54.35;100932.75;4954105;29;20047;-79
2023/04/28 01:26:08;;;;;;;3.08;2.75;;;;;;;6.98;54.73;100931.88;4938449;29;20077;-81
2023/04/28 01:28:34;;;;;;;5.47;3.33;;;;;;;6.93;55.10;100932.66;4937872;29;20050;-81
2023/04/28 01:31:01;;;;;;;3.45;2.33;;;;;;;6.91;55.12;100930.91;4970211;28;20035;-80
2023/04/28 01:33:27;;;;;;;4.05;2.95;;;;;;;6.86;55.42;100925.66;4969731;28;20047;-81
2023/04/28 01:35:58;;;;;;;2.63;2.30;;;;;;;6.84;55.70;100927.38;4971082;28;20094;-80
2023/04/28 01:38:24;;;;;;;3.33;2.40;;;;;;;6.81;56.19;100924.75;4942212;29;20035;-81
2023/04/28 01:40:51;;;;;;;3.67;2.78;;;;;;;6.78;56.08;100919.53;4973714;28;20475;-80
2023/04/28 01:43:17;;;;;;;4.25;2.92;;;;;;;6.78;56.01;100920.38;4958047;29;20039;-81
2023/04/28 01:45:47;;;;;;;5.07;3.20;;;;;;;6.78;56.22;100917.78;4958057;29;20042;-81
2023/04/28 01:48:15;;;;;;;6.30;3.00;;;;;;;6.81;56.09;100914.34;4973850;28;20134;-81
2023/04/28 01:50:41;;;;;;;2.30;2.10;;;;;;;6.81;56.20;100913.47;4957450;29;20430;-81
2023/04/28 01:53:08;;;;;;;4.60;3.13;;;;;;;6.78;56.39;100909.97;4957511;29;20035;-81
2023/04/28 01:55:34;;;;;;;6.63;2.60;;;;;;;6.79;56.44;100903.91;4973533;28;20043;-81
2023/04/28 01:58:01;;;;;;;4.35;2.85;;;;;;;6.76;56.33;100901.25;4942113;29;20073;-81
2023/04/28 02:00:30;;;;;;;4.47;2.88;;;;;;;6.79;56.51;100908.22;4958785;29;20057;-81
2023/04/28 02:02:56;;;;;;;2.75;2.47;;;;;;;6.73;56.58;100892.56;4958477;29;20389;-82
2023/04/28 02:05:23;;;;;;;4.95;2.28;;;;;;;6.67;56.56;100890.75;4957686;29;20051;-81
2023/04/28 02:07:49;;;;;;;5.60;3.03;;;;;;;6.61;57.10;100891.56;4956907;29;20124;-81
2023/04/28 02:10:16;;;;;;;6.70;2.40;;;;;;;6.55;57.30;100886.28;4972882;28;20067;-81
2023/04/28 02:12:42;;;;;;;7.47;2.97;;;;;;;6.48;57.15;100876.69;4957601;29;20051;-82
2023/04/28 02:15:09;;;;;;;8.88;3.35;;;;;;;6.42;57.55;100876.63;4941207;29;20044;-81
2023/04/28 02:17:36;;;;;;;4.03;2.63;;;;;;;6.38;58.08;100874.84;4957553;29;20126;-81
2023/04/28 02:20:03;;;;;;;4.68;2.50;;;;;;;6.33;58.22;100876.50;4940769;29;20051;-81
2023/04/28 02:22:30;;;;;;;4.45;2.28;;;;;;;6.29;58.52;100870.41;4956970;28;20047;-81
2023/04/28 02:24:57;;;;;;;2.92;2.47;;;;;;;6.25;58.51;100874.69;4973137;28;20061;-81
2023/04/28 02:27:24;;;;;;;6.13;3.03;;;;;;;6.21;58.87;100875.50;4941183;29;20047;-80
2023/04/28 02:29:50;;;;;;;3.70;2.83;;;;;;;6.18;59.08;100871.97;4956489;29;20433;-81
2023/04/28 02:32:17;;;;;;;5.32;2.25;;;;;;;6.16;59.39;100864.16;4972882;28;20051;-80
2023/04/28 02:34:43;;;;;;;3.80;2.47;;;;;;;6.18;59.12;100861.59;4956756;29;20102;-81
2023/04/28 02:37:10;;;;;;;3.20;2.33;;;;;;;6.18;58.96;100854.69;4973260;28;20035;-80
2023/04/28 02:39:36;;;;;;;2.72;2.53;;;;;;;6.18;59.09;100844.28;4956613;28;20065;-81
2023/04/28 02:42:04;;;;;;;6.35;3.03;;;;;;;6.19;59.00;100843.44;4973392;28;20051;-81
2023/04/28 02:44:31;;;;;;;6.63;3.05;;;;;;;6.18;58.98;100838.19;4972192;28;20099;-81
2023/04/28 02:46:57;;;;;;;2.78;2.17;;;;;;;6.16;58.59;100842.50;4955875;28;20035;-81
2023/04/28 02:49:24;;;;;;;3.42;2.67;;;;;;;6.15;58.82;100843.34;4972552;28;20043;-81
2023/04/28 02:51:50;;;;;;;8.30;4.57;;;;;;;6.13;58.97;100840.75;4973026;28;20041;-82
2023/04/28 02:54:26;;;;;;;6.25;2.97;;;;;;;6.15;59.04;100833.81;4972640;28;20035;-81
2023/04/28 02:56:53;;;;;;;3.80;2.80;;;;;;;6.12;58.98;100834.66;4957453;29;20477;-81
2023/04/28 02:59:20;;;;;;;4.82;3.13;;;;;;;6.10;59.27;100833.78;4956487;29;20122;-82
2023/04/28 03:01:47;;;;;;;3.08;2.80;;;;;;;6.10;58.80;100830.28;4940652;29;20347;-82
2023/04/28 03:04:14;;;;;;;6.93;3.20;;;;;;;6.07;59.97;100828.53;4957001;29;20050;-81
2023/04/28 03:06:42;;;;;;;6.30;3.05;;;;;;;6.06;59.72;100821.63;4956749;29;20091;-81
2023/04/28 03:09:10;;;;;;;4.97;2.90;;;;;;;6.08;59.34;100822.47;4940031;29;20086;-81
2023/04/28 03:11:36;;;;;;;4.55;3.00;;;;;;;6.12;59.44;100821.66;4940116;29;20043;-80
2023/04/28 03:14:03;;;;;;;3.60;3.20;;;;;;;6.15;59.33;100814.78;4971871;28;20046;-82
2023/04/28 03:16:30;;;;;;;3.40;2.80;;;;;;;6.17;59.49;100802.69;4956119;29;20039;-81
2023/04/28 03:18:56;;;;;;;10.55;3.78;;;;;;;6.18;59.24;100805.28;4955900;29;20381;-81
2023/04/28 03:21:23;;;;;;;6.53;3.65;;;;;;;6.17;59.47;100800.94;4971874;28;20118;-81
2023/04/28 03:23:49;;;;;;;5.90;2.67;;;;;;;6.23;59.51;100803.63;4971833;28;20497;-81
2023/04/28 03:26:16;;;;;;;4.65;2.65;;;;;;;6.27;59.28;100801.91;4972715;28;20047;-82
2023/04/28 03:28:43;;;;;;;4.30;2.35;;;;;;;6.29;58.84;100801.06;4956994;29;20386;-82
2023/04/28 03:31:10;;;;;;;3.58;2.50;;;;;;;6.31;58.80;100795.91;4971302;28;20098;-81
2023/04/28 03:33:36;;;;;;;9.95;4.60;;;;;;;6.32;58.74;100792.41;4972341;28;20050;-82
2023/04/28 03:36:03;;;;;;;7.63;2.85;;;;;;;6.35;59.02;100796.78;4955807;29;20094;-81
2023/04/28 03:38:34;;;;;;;5.88;3.53;;;;;;;6.35;59.09;100791.59;4940043;29;20043;-81
2023/04/28 03:41:01;;;;;;;5.47;3.40;;;;;;;6.28;59.17;100783.75;4956430;29;20151;-81
2023/04/28 03:43:27;;;;;;;8.38;3.58;;;;;;;6.22;59.77;100785.38;4957364;29;20049;-81
2023/04/28 03:45:53;;;;;;;6.05;2.78;;;;;;;6.17;60.09;100779.28;4941071;29;20047;-81
2023/04/28 03:48:20;;;;;;;6.60;2.88;;;;;;;6.09;59.97;100772.25;4972936;28;20462;-81
2023/04/28 03:50:47;;;;;;;5.90;4.22;;;;;;;6.02;60.52;100774.75;4955485;29;20039;-81
2023/04/28 03:53:13;;;;;;;3.35;3.00;;;;;;;5.94;61.21;100772.94;4971686;28;20078;-81
2023/04/28 03:55:40;;;;;;;7.55;3.38;;;;;;;5.92;61.36;100771.16;4955397;29;20529;-82
2023/04/28 03:58:06;;;;;;;5.82;3.08;;;;;;;5.90;61.77;100773.72;4956234;28;20090;-81
2023/04/28 04:00:33;;;;;;;5.03;2.90;;;;;;;5.90;61.89;100763.34;4971486;28;20058;-82
2023/04/28 04:02:59;;;;;;;6.18;3.40;;;;;;;5.90;61.78;100763.34;4955791;29;20039;-81
2023/04/28 04:05:26;;;;;;;6.30;3.42;;;;;;;5.92;62.39;100761.63;4971449;28;20066;-82
2023/04/28 04:07:52;;;;;;;6.43;3.40;;;;;;;5.93;62.51;100755.59;4939485;29;20102;-81
2023/04/28 04:10:19;;;;;;;4.53;3.08;;;;;;;5.94;61.97;100751.25;4956021;29;20086;-81
2023/04/28 04:12:45;;;;;;;8.68;3.47;;;;;;;6.01;62.14;100749.63;4971595;28;20517;-81
2023/04/28 04:15:12;;;;;;;6.03;3.58;;;;;;;6.06;62.12;100740.16;4940256;29;20375;-81
2023/04/28 04:17:38;;;;;;;5.25;3.25;;;;;;;6.10;61.85;100748.03;4971272;28;20043;-81
2023/04/28 04:20:06;;;;;;;7.90;3.97;;;;;;;6.16;61.55;100747.19;4955405;29;20055;-81
2023/04/28 04:22:33;;;;;;;5.63;3.75;;;;;;;6.19;61.10;100736.84;4955907;29;20553;-80
2023/04/28 04:24:59;;;;;;;5.55;4.40;;;;;;;6.23;60.67;100745.53;4942090;29;20358;-83
2023/04/28 04:27:26;;;;;;;6.20;3.38;;;;;;;6.25;60.77;100738.63;4941096;29;20393;-81
2023/04/28 04:29:52;;;;;;;6.60;3.63;;;;;;;6.28;60.84;100736.94;4939594;29;20130;-81
2023/04/28 04:32:19;;;;;;;7.43;3.97;;;;;;;6.30;60.44;100734.34;4954776;29;20051;-80
2023/04/28 04:41:14;;;;;;;7.25;2.55;;;;;;;6.36;60.11;100731.81;4932850;29;20078;-80
2023/04/28 04:43:40;;;;;;;6.35;3.30;;;;;;;6.40;60.27;100717.09;4939991;29;20094;-81
2023/04/28 04:46:07;;;;;;;5.90;3.95;;;;;;;6.43;59.88;100722.34;4971849;28;20063;-82
2023/04/28 04:48:34;;;;;;;5.70;3.75;;;;;;;6.46;59.85;100731.03;4971363;28;20099;-81
2023/04/28 04:51:01;;;;;;;5.32;2.97;;;;;;;6.49;59.96;100724.13;4956014;29;20043;-80
2023/04/28 04:53:31;;;;;;;6.43;3.58;;;;;;;6.51;59.93;100725.88;4939982;29;20467;-81
2023/04/28 04:56:01;;;;;;;5.80;3.40;;;;;;;6.52;59.60;100722.44;4940886;29;20043;-81
2023/04/28 04:58:28;;;;;;;6.57;3.72;;;;;;;6.56;59.45;100723.34;4955760;29;20046;-82
2023/04/28 05:00:55;;;;;;;5.50;3.63;;;;;;;6.57;59.45;100723.34;4955459;29;20498;-81
2023/04/28 05:03:21;;;;;;;5.75;3.42;;;;;;;6.61;59.32;100725.09;4972027;28;20067;-81
2023/04/28 05:05:49;;;;;;;4.15;3.15;;;;;;;6.61;59.34;100725.09;4955745;29;20435;-81
2023/04/28 05:08:16;;;;;;;7.55;3.55;;;;;;;6.65;59.44;100725.13;4955234;29;20474;-81
2023/04/28 05:10:42;;;;;;;5.80;3.58;;;;;;;6.67;58.99;100713.88;4954771;28;20039;-82
2023/04/28 05:13:08;;;;;;;8.57;3.72;;;;;;;6.72;59.01;100714.78;4971174;28;20043;-82
2023/04/28 05:15:35;;;;;;;11.65;4.88;;;;;;;6.77;59.13;100707.03;4955458;29;20478;-81
2023/04/28 05:18:07;;;;;;;7.30;3.92;;;;;;;6.85;58.81;100705.34;4939322;29;20128;-81
2023/04/28 05:20:34;;;;;;;8.05;6.00;;;;;;;6.90;58.39;100710.59;4970293;28;20459;-81
2023/04/28 05:23:01;;;;;;;4.45;3.50;;;;;;;6.92;58.44;100703.63;4971071;28;20053;-81
2023/04/28 05:25:28;;;;;;;6.68;4.40;;;;;;;6.97;58.71;100706.28;4971205;28;20047;-82
2023/04/28 05:27:56;;;;;;;6.35;3.92;;;;;;;6.99;58.52;100700.22;4954708;29;20074;-81
2023/04/28 05:30:23;;;;;;;6.38;3.45;;;;;;;7.01;58.19;100701.09;4955939;28;20477;-81
2023/04/28 05:32:50;;;;;;;4.97;3.45;;;;;;;7.08;58.25;100700.28;4970293;28;20474;-81
2023/04/28 05:35:16;;;;;;;5.18;3.00;;;;;;;7.09;58.14;100696.81;4954654;29;20039;-81
2023/04/28 05:37:43;;;;;;;8.20;4.82;;;;;;;7.16;57.96;100700.34;4970785;28;20046;-81
2023/04/28 05:40:11;;;;;;;6.18;4.38;;;;;;;7.24;57.95;100695.19;4924297;29;20442;-82
2023/04/28 05:42:37;;;;;;;5.25;3.83;;;;;;;7.27;57.39;100690.84;4955180;29;20105;-81
2023/04/28 05:45:05;;;;;;;4.68;3.53;;;;;;;7.28;57.43;100684.75;4955298;29;20046;-82
2023/04/28 05:47:32;;;;;;;6.90;3.67;;;;;;;7.34;57.42;100685.66;4939486;29;20051;-79
2023/04/28 05:49:59;;;;;;;5.03;3.85;;;;;;;7.37;57.17;100691.75;4955156;29;20035;-82
2023/04/28 05:52:25;;;;;;;5.95;4.32;;;;;;;7.42;56.92;100681.38;4955548;28;20074;-81
2023/04/28 05:54:52;;;;;;;5.53;3.42;;;;;;;7.43;56.69;100676.16;4971570;28;20106;-80
2023/04/28 05:57:18;;;;;;;4.88;3.40;;;;;;;7.43;56.60;100670.06;4955801;29;20420;-82
2023/04/28 05:59:46;;;;;;;7.18;4.18;;;;;;;7.46;56.44;100675.31;4957219;29;20047;-80
2023/04/28 06:02:13;;;;;;;6.93;4.50;;;;;;;7.54;56.48;100671.00;4956008;28;20374;-82
2023/04/28 06:04:40;;;;;;;10.13;6.85;;;;;;;7.67;56.65;100674.50;4971639;28;20049;-80
2023/04/28 06:07:07;;;;;;;13.70;7.82;;;;;;;7.78;56.28;100670.22;4955624;29;20045;-82
2023/04/28 06:09:34;;;;;;;8.10;5.38;;;;;;;7.95;56.04;100666.75;4940481;29;20370;-82
2023/04/28 06:12:02;;;;;;;13.55;5.72;;;;;;;8.04;55.48;100673.75;4971942;28;20051;-83
2023/04/28 06:14:29;;;;;;;8.35;5.85;;;;;;;8.09;54.89;100670.25;4955407;29;20107;-81
2023/04/28 06:16:55;;;;;;;8.10;5.13;;;;;;;8.15;55.10;100661.59;4956028;29;20081;-80
2023/04/28 06:19:22;;;;;;;5.32;4.82;;;;;;;8.19;54.94;100668.56;4954534;29;20059;-81
2023/04/28 06:21:49;;;;;;;9.00;5.50;;;;;;;8.26;55.09;100656.38;4940379;29;20423;-81
2023/04/28 06:24:15;;;;;;;8.32;4.55;;;;;;;8.35;54.57;100663.34;4973858;28;20054;-81
2023/04/28 06:26:42;;;;;;;5.00;4.45;;;;;;;8.33;54.70;100655.53;4943056;29;20035;-81
2023/04/28 06:29:08;;;;;;;6.82;4.40;;;;;;;8.36;54.64;100665.09;4959192;29;20043;-81
2023/04/28 06:31:35;;;;;;;7.47;4.85;;;;;;;8.38;54.75;100661.63;4959453;29;20043;-80
2023/04/28 06:34:02;;;;;;;7.18;5.28;;;;;;;8.46;54.13;100661.66;4958718;28;20082;-81
2023/04/28 06:36:28;;;;;;;5.65;4.88;;;;;;;8.56;54.32;100665.97;4958828;29;20058;-81
2023/04/28 06:38:57;;;;;;;9.40;4.78;;;;;;;8.70;53.83;100665.97;4961024;29;20035;-81
2023/04/28 06:41:24;;;;;;;10.10;4.30;;;;;;;8.88;53.60;100669.44;4958725;29;20533;-81
2023/04/28 06:43:51;;;;;;;6.38;4.00;;;;;;;9.03;53.31;100673.75;4958892;29;20055;-81
2023/04/28 06:46:17;;;;;;;7.68;4.40;;;;;;;9.08;52.84;100674.59;4958996;29;20090;-80
2023/04/28 06:48:49;;;;;;;12.25;4.93;;;;;;;9.17;52.46;100671.13;4960897;29;20130;-81
2023/04/28 06:51:16;;;;;;;4.55;4.03;;;;;;;9.20;52.57;100677.16;4959097;29;20055;-81
2023/04/28 06:53:45;;;;;;;4.88;3.85;;;;;;;9.23;52.65;100671.06;4958744;29;20046;-81
2023/04/28 06:56:11;;;;;;;7.57;4.95;;;;;;;9.31;52.00;100655.38;4959461;29;20078;-81
2023/04/28 06:58:38;;;;;;;11.75;6.10;;;;;;;9.33;52.46;100654.50;4958836;29;20047;-81
2023/04/28 07:01:04;;;;;;;6.40;5.03;;;;;;;9.41;52.15;100651.84;4958959;29;20039;-81
2023/04/28 07:03:31;;;;;;;8.75;4.43;;;;;;;9.60;51.74;100647.41;4957932;29;20071;-81
2023/04/28 07:05:58;;;;;;;9.82;4.72;;;;;;;9.60;51.88;100645.66;4957981;29;20035;-81
2023/04/28 07:08:24;;;;;;;8.80;5.88;;;;;;;9.73;51.51;100635.16;4957976;29;20043;-80
2023/04/28 07:10:51;;;;;;;9.30;4.68;;;;;;;9.94;51.18;100642.00;4957080;28;20051;-82
2023/04/28 07:13:17;;;;;;;11.27;5.05;;;;;;;10.21;50.89;100643.53;4956448;29;20047;-82
2023/04/28 07:15:44;;;;;;;7.47;4.95;;;;;;;10.63;49.90;100638.00;4973302;28;20062;-81
2023/04/28 07:18:10;;;;;;;6.90;4.78;;;;;;;10.93;48.41;100631.56;4972931;28;20447;-80
2023/04/28 07:20:37;;;;;;;6.95;5.28;;;;;;;11.15;48.18;100628.72;4940824;29;20431;-79
2023/04/28 07:23:04;;;;;;;6.57;4.55;;;;;;;11.30;47.89;100632.03;4956495;29;20129;-81
2023/04/28 07:25:30;;;;;;;8.15;4.78;;;;;;;11.30;47.35;100634.66;4941490;29;20047;-82
2023/04/28 07:27:57;;;;;;;10.15;4.85;;;;;;;11.38;47.52;100630.19;4956444;29;20035;-82
2023/04/28 07:30:23;;;;;;;9.82;4.90;;;;;;;11.42;47.24;100632.75;4972304;28;20039;-82
2023/04/28 07:32:51;;;;;;;8.23;4.60;;;;;;;11.55;46.90;100645.69;4972145;28;20191;-82
2023/04/28 07:35:20;;;;;;;6.55;4.50;;;;;;;11.66;47.00;100635.06;4956097;28;20043;-81
2023/04/28 07:37:47;;;;;;;9.82;5.07;;;;;;;11.81;46.60;100632.25;4972508;28;20043;-81
2023/04/28 07:40:13;;;;;;;5.90;4.50;;;;;;;11.97;46.60;100634.66;4972428;28;20050;-81
2023/04/28 07:42:41;;;;;;;7.20;4.78;;;;;;;12.26;46.04;100630.72;4940679;29;20039;-81
2023/04/28 07:45:08;;;;;;;7.95;4.10;;;;;;;12.43;45.80;100625.19;4940155;29;20043;-81
2023/04/28 07:47:35;;;;;;;8.10;5.10;;;;;;;12.54;45.57;100631.09;4940558;29;20043;-81
2023/04/28 07:50:05;;;;;;;6.43;5.20;;;;;;;12.40;45.63;100626.97;4955805;29;20131;-82
2023/04/28 07:52:33;;;;;;;9.82;4.70;;;;;;;12.32;45.87;100614.84;4955607;29;20126;-82
2023/04/28 07:55:00;;;;;;;7.50;5.20;;;;;;;12.39;45.84;100621.75;4956237;29;20530;-82
2023/04/28 07:57:28;;;;;;;7.18;4.70;;;;;;;12.35;45.78;100614.81;4955853;29;20074;-82
2023/04/28 07:59:54;;;;;;;8.13;4.72;;;;;;;12.45;45.77;100613.78;4956660;29;20051;-82
2023/04/28 08:02:21;;;;;;;9.70;5.40;;;;;;;12.58;45.53;100609.19;4956049;29;20039;-81
2023/04/28 08:04:50;;;;;;;5.88;4.57;;;;;;;12.62;45.76;100605.59;4940698;29;20058;-81
2023/04/28 08:07:17;;;;;;;5.65;4.40;;;;;;;12.68;44.78;100612.47;4940160;29;20130;-82
2023/04/28 08:09:46;;;;;;;8.23;5.30;;;;;;;12.45;45.79;100611.16;4956446;29;20066;-81
2023/04/28 08:12:14;;;;;;;11.77;5.35;;;;;;;12.41;45.82;100602.44;4971610;28;20043;-81
2023/04/28 08:14:40;;;;;;;6.53;5.75;;;;;;;12.42;45.99;100600.69;4955487;29;20046;-81
2023/04/28 08:17:07;;;;;;;6.60;5.13;;;;;;;12.58;45.08;100599.53;4971313;28;20039;-81
2023/04/28 08:19:34;;;;;;;5.75;5.03;;;;;;;12.66;45.04;100602.00;4955364;29;20051;-81
2023/04/28 08:22:04;;;;;;;10.65;5.75;;;;;;;12.64;44.86;100605.56;4955492;29;20090;-81
2023/04/28 08:24:33;;;;;;;7.53;5.22;;;;;;;12.54;45.31;100600.47;4956090;29;20126;-81
2023/04/28 08:27:02;;;;;;;6.20;4.57;;;;;;;12.62;44.96;100595.09;4955915;29;20043;-80
2023/04/28 08:29:31;;;;;;;5.70;4.88;;;;;;;12.72;45.08;100588.78;4955626;29;20046;-80
2023/04/28 08:31:58;;;;;;;5.95;5.35;;;;;;;12.82;45.05;100596.47;4955809;29;20036;-81
2023/04/28 08:34:24;;;;;;;12.05;5.85;;;;;;;12.86;45.10;100595.53;4955577;28;20039;-81
2023/04/28 08:36:51;;;;;;;10.63;5.90;;;;;;;13.12;45.03;100591.50;4956275;29;20038;-83
2023/04/28 08:39:19;;;;;;;8.52;5.90;;;;;;;13.22;44.94;100593.06;4955622;29;20043;-82
2023/04/28 08:41:45;;;;;;;7.18;5.40;;;;;;;13.21;44.78;100591.31;4955397;29;20053;-82
2023/04/28 08:44:13;;;;;;;7.63;5.13;;;;;;;13.23;44.70;100590.38;4955228;29;20094;-81
2023/04/28 08:46:44;;;;;;;9.98;6.35;;;;;;;13.37;44.25;100587.47;4954870;28;20122;-82
2023/04/28 08:49:18;;;;;;;8.73;6.13;;;;;;;13.56;44.21;100595.84;4972233;28;20042;-81
2023/04/28 08:51:57;;;;;;;9.40;6.65;;;;;;;13.46;44.05;100593.44;4955685;28;20039;-81
2023/04/28 08:54:27;;;;;;;7.03;6.07;;;;;;;13.37;44.10;100589.25;4955728;29;20473;-81
2023/04/28 08:56:56;;;;;;;7.65;5.78;;;;;;;13.07;44.79;100591.59;4955503;29;20043;-81
2023/04/28 08:59:23;;;;;;;9.93;6.22;;;;;;;12.88;45.58;100589.34;4956357;28;20043;-81
2023/04/28 09:01:50;;;;;;;10.35;6.03;;;;;;;12.79;45.35;100581.63;4938787;29;20050;-81
2023/04/28 09:04:18;;;;;;;10.02;6.57;;;;;;;12.67;45.82;100588.00;4971063;28;20442;-82
2023/04/28 09:06:45;;;;;;;8.57;5.53;;;;;;;12.51;46.58;100581.28;4939461;29;20459;-81
2023/04/28 09:09:29;;;;;;;8.75;6.53;;;;;;;12.51;46.79;100569.00;4956489;28;20051;-81
2023/04/28 09:12:04;;;;;;;11.35;6.30;;;;;;;12.31;47.12;100574.63;4955657;28;20351;-83
2023/04/28 09:14:36;;;;;;;7.20;5.35;;;;;;;12.33;47.29;100562.34;4955475;29;20118;-81
2023/04/28 09:17:15;;;;;;;8.50;6.10;;;;;;;12.36;47.02;100566.69;4940236;29;20039;-81
2023/04/28 09:19:42;;;;;;;14.52;6.32;;;;;;;12.46;47.30;100570.00;4939147;28;20166;-82
2023/04/28 09:22:14;;;;;;;9.75;6.93;;;;;;;12.68;46.77;100563.44;4955338;29;20047;-82
2023/04/28 09:24:42;;;;;;;8.55;6.85;;;;;;;12.93;46.20;100562.97;4939658;29;20102;-82
2023/04/28 09:27:14;;;;;;;9.88;5.50;;;;;;;13.14;46.07;100566.94;4955076;29;20037;-81
2023/04/28 09:29:54;;;;;;;10.05;7.25;;;;;;;13.14;45.79;100559.03;4957525;28;20121;-82
2023/04/28 09:32:22;;;;;;;9.20;7.15;;;;;;;13.10;45.96;100540.72;4956426;29;20218;-80
2023/04/28 09:34:53;;;;;;;14.20;7.25;;;;;;;13.18;46.18;100536.16;4939951;29;20039;-81
2023/04/28 09:37:23;;;;;;;8.93;6.90;;;;;;;13.14;46.11;100543.28;4971094;28;20078;-80
2023/04/28 09:39:53;;;;;;;11.90;7.30;;;;;;;13.18;46.30;100542.31;4955978;28;20043;-82
2023/04/28 09:42:41;;;;;;;11.13;6.43;;;;;;;13.51;46.31;100545.09;4956228;29;20043;-81
2023/04/28 09:45:13;;;;;;;9.57;6.75;;;;;;;13.81;45.42;100536.53;4939875;29;20047;-81
2023/04/28 09:47:43;;;;;;;12.87;7.07;;;;;;;14.02;45.11;100538.63;4955664;29;20039;-81
2023/04/28 09:50:13;;;;;;;17.23;6.75;;;;;;;13.95;44.92;100544.97;4956008;29;20693;-82
2023/04/28 09:52:56;;;;;;;10.85;6.72;;;;;;;13.88;45.15;100543.38;4956311;29;20039;-81
2023/04/28 09:55:27;;;;;;;9.60;6.18;;;;;;;13.88;45.41;100544.25;4956114;28;20054;-81
2023/04/28 09:57:56;;;;;;;9.93;7.05;;;;;;;13.72;45.55;100542.88;4956816;28;20110;-81
2023/04/28 10:00:23;;;;;;;10.18;7.45;;;;;;;13.56;46.31;100551.13;4958728;29;20043;-82
2023/04/28 10:02:50;;;;;;;9.48;7.22;;;;;;;13.42;46.58;100547.09;4958222;28;20130;-82
2023/04/28 10:05:18;;;;;;;8.57;6.32;;;;;;;13.23;47.07;100543.06;4958918;29;20454;-82
2023/04/28 10:07:44;;;;;;;8.43;6.47;;;;;;;13.16;47.63;100540.59;4958431;29;20065;-81
2023/04/28 10:10:14;;;;;;;7.03;6.00;;;;;;;13.16;47.73;100537.97;4959726;29;20031;-81
2023/04/28 10:12:43;;;;;;;7.53;6.03;;;;;;;13.14;47.67;100539.75;4959877;28;20039;-79
2023/04/28 10:15:13;;;;;;;8.93;6.45;;;;;;;13.18;47.46;100542.31;4961117;29;20042;-81
2023/04/28 10:17:43;;;;;;;9.55;7.40;;;;;;;13.14;47.81;100542.38;4958677;28;20098;-80
2023/04/28 10:20:11;;;;;;;9.10;7.15;;;;;;;13.17;48.21;100537.94;4942233;29;20046;-81
2023/04/28 10:23:26;;;;;;;10.02;6.60;;;;;;;13.33;48.05;100535.84;4958013;29;20146;-81
2023/04/28 10:25:58;;;;;;;10.40;6.55;;;;;;;13.48;47.47;100532.03;4958983;29;20039;-81
2023/04/28 10:28:26;;;;;;;9.35;6.03;;;;;;;13.72;47.39;100530.59;4958813;29;20167;-81
2023/04/28 10:31:13;;;;;;;11.23;6.80;;;;;;;13.94;46.99;100522.16;4958491;29;20043;-81
2023/04/28 10:33:43;;;;;;;10.63;7.00;;;;;;;14.02;46.84;100524.63;4957682;29;20066;-81
2023/04/28 10:36:11;;;;;;;7.93;6.38;;;;;;;14.20;46.31;100515.38;4957964;29;20081;-81
2023/04/28 10:39:09;;;;;;;8.75;6.30;;;;;;;14.39;46.18;100518.38;4956884;28;20134;-82
2023/04/28 10:41:35;;;;;;;9.40;6.22;;;;;;;14.53;46.05;100518.00;4941732;29;20370;-82
2023/04/28 10:44:30;;;;;;;11.57;7.15;;;;;;;14.79;46.11;100522.56;4973200;28;20074;-81
2023/04/28 10:47:08;;;;;;;7.63;6.18;;;;;;;14.79;45.85;100527.00;4957076;29;20188;-81
2023/04/28 10:50:06;;;;;;;8.25;7.15;;;;;;;14.69;45.87;100513.19;4957966;28;20047;-81
2023/04/28 10:52:33;;;;;;;6.15;5.18;;;;;;;14.68;46.30;100512.34;4957509;28;20035;-81
2023/04/28 10:55:35;;;;;;;6.70;5.78;;;;;;;14.88;46.01;100513.53;4956781;29;20138;-81
2023/04/28 10:58:16;;;;;;;11.00;7.07;;;;;;;14.86;45.76;100504.81;4956809;29;20047;-81
2023/04/28 11:00:46;;;;;;;12.55;6.63;;;;;;;14.82;46.06;100506.69;4958044;29;20031;-81
2023/04/28 11:03:47;;;;;;;8.38;5.97;;;;;;;14.87;46.02;100494.25;4957535;29;20043;-80
2023/04/28 11:06:32;;;;;;;8.40;6.35;;;;;;;15.26;45.70;100502.75;4961562;29;20045;-81
2023/04/28 11:09:12;;;;;;;12.07;7.10;;;;;;;15.36;45.79;100504.22;4940533;29;20043;-80
2023/04/28 11:12:02;;;;;;;7.60;6.47;;;;;;;15.23;45.91;100493.19;4958942;28;20049;-81
2023/04/28 11:14:28;;;;;;;10.23;6.28;;;;;;;15.31;46.26;100493.78;4958657;29;20055;-80
2023/04/28 11:17:12;;;;;;;9.52;6.80;;;;;;;15.24;45.70;100480.84;4958373;29;20043;-80
2023/04/28 11:19:41;;;;;;;10.40;6.40;;;;;;;15.08;46.15;100478.66;4957855;29;20039;-81
2023/04/28 11:22:15;;;;;;;9.80;6.93;;;;;;;14.97;46.31;100481.66;4942174;29;20500;-82
2023/04/28 11:24:55;;;;;;;11.40;7.20;;;;;;;14.79;46.58;100479.56;4957647;29;20039;-81
2023/04/28 11:27:32;;;;;;;8.02;6.82;;;;;;;14.71;47.16;100474.50;4957932;29;20043;-80
2023/04/28 11:30:00;;;;;;;11.18;6.57;;;;;;;14.86;46.88;100476.69;4958296;29;20110;-81
2023/04/28 11:32:32;;;;;;;10.60;6.35;;;;;;;15.02;46.60;100474.47;4956738;29;20043;-81
2023/04/28 11:34:58;;;;;;;7.15;6.43;;;;;;;15.15;46.61;100474.94;4940846;29;20051;-81
2023/04/28 11:37:25;;;;;;;9.35;6.38;;;;;;;14.98;46.87;100459.66;4972911;28;20046;-81
2023/04/28 11:39:53;;;;;;;11.00;6.18;;;;;;;15.15;46.70;100466.19;4958187;28;20110;-81
2023/04/28 11:42:21;;;;;;;8.57;6.40;;;;;;;15.26;46.42;100461.41;4956892;29;20102;-80